sensor_id;sensor_type;location;lat;lon;timestamp;temperature;humidity
31443;SHT31;18065;55.876;9.830;2023-07-31T00:02:25;25.14;51.33
31443;SHT31;18065;55.876;9.830;2023-07-31T00:04:54;25.12;51.35
31443;SHT31;18065;55.876;9.830;2023-07-31T00:07:25;25.15;51.46
31443;SHT31;18065;55.876;9.830;2023-07-31T00:09:54;25.14;51.37
31443;SHT31;18065;55.876;9.830;2023-07-31T00:12:22;25.14;51.33
31443;SHT31;18065;55.876;9.830;2023-07-31T00:14:51;25.10;51.30
31443;SHT31;18065;55.876;9.830;2023-07-31T00:17:20;25.14;51.36
31443;SHT31;18065;55.876;9.830;2023-07-31T00:19:49;25.12;51.30
31443;SHT31;18065;55.876;9.830;2023-07-31T00:22:17;25.11;51.41
31443;SHT31;18065;55.876;9.830;2023-07-31T00:24:49;25.12;51.44
31443;SHT31;18065;55.876;9.830;2023-07-31T00:27:17;25.11;51.33
31443;SHT31;18065;55.876;9.830;2023-07-31T00:29:46;25.14;51.28
31443;SHT31;18065;55.876;9.830;2023-07-31T00:32:15;25.14;51.34
31443;SHT31;18065;55.876;9.830;2023-07-31T00:34:43;25.15;51.33
31443;SHT31;18065;55.876;9.830;2023-07-31T00:37:12;25.14;51.33
31443;SHT31;18065;55.876;9.830;2023-07-31T00:39:41;25.15;51.27
31443;SHT31;18065;55.876;9.830;2023-07-31T00:42:12;25.15;51.34
31443;SHT31;18065;55.876;9.830;2023-07-31T00:44:41;25.15;51.26
31443;SHT31;18065;55.876;9.830;2023-07-31T00:47:10;25.11;51.27
31443;SHT31;18065;55.876;9.830;2023-07-31T00:49:38;25.14;51.33
31443;SHT31;18065;55.876;9.830;2023-07-31T00:52:09;25.12;51.32
31443;SHT31;18065;55.876;9.830;2023-07-31T00:54:38;25.14;51.30
31443;SHT31;18065;55.876;9.830;2023-07-31T00:57:07;25.12;51.32
31443;SHT31;18065;55.876;9.830;2023-07-31T00:59:39;25.15;51.30
31443;SHT31;18065;55.876;9.830;2023-07-31T01:02:07;25.11;51.28
31443;SHT31;18065;55.876;9.830;2023-07-31T01:04:36;25.12;51.31
31443;SHT31;18065;55.876;9.830;2023-07-31T01:07:12;25.11;51.31
31443;SHT31;18065;55.876;9.830;2023-07-31T01:09:45;25.14;51.27
31443;SHT31;18065;55.876;9.830;2023-07-31T01:12:16;25.12;51.26
31443;SHT31;18065;55.876;9.830;2023-07-31T01:15:02;25.10;51.32
31443;SHT31;18065;55.876;9.830;2023-07-31T01:17:31;25.11;51.26
31443;SHT31;18065;55.876;9.830;2023-07-31T01:20:02;25.10;51.26
31443;SHT31;18065;55.876;9.830;2023-07-31T01:22:44;25.11;51.38
31443;SHT31;18065;55.876;9.830;2023-07-31T01:25:32;25.14;51.30
31443;SHT31;18065;55.876;9.830;2023-07-31T01:28:09;25.10;51.24
31443;SHT31;18065;55.876;9.830;2023-07-31T01:30:42;25.12;51.25
31443;SHT31;18065;55.876;9.830;2023-07-31T01:33:12;25.08;51.20
31443;SHT31;18065;55.876;9.830;2023-07-31T01:35:44;25.02;51.33
31443;SHT31;18065;55.876;9.830;2023-07-31T01:38:13;25.02;51.29
31443;SHT31;18065;55.876;9.830;2023-07-31T01:40:42;25.02;51.25
31443;SHT31;18065;55.876;9.830;2023-07-31T01:43:13;24.98;51.34
31443;SHT31;18065;55.876;9.830;2023-07-31T01:45:42;25.01;51.31
31443;SHT31;18065;55.876;9.830;2023-07-31T01:48:10;24.98;51.25
31443;SHT31;18065;55.876;9.830;2023-07-31T01:50:39;24.95;51.26
31443;SHT31;18065;55.876;9.830;2023-07-31T01:53:08;24.97;51.32
31443;SHT31;18065;55.876;9.830;2023-07-31T01:55:37;24.92;51.39
31443;SHT31;18065;55.876;9.830;2023-07-31T01:58:06;24.94;51.30
31443;SHT31;18065;55.876;9.830;2023-07-31T02:00:37;24.94;51.35
31443;SHT31;18065;55.876;9.830;2023-07-31T02:03:06;24.95;51.19
31443;SHT31;18065;55.876;9.830;2023-07-31T02:05:35;24.92;51.29
31443;SHT31;18065;55.876;9.830;2023-07-31T02:08:03;24.95;51.14
31443;SHT31;18065;55.876;9.830;2023-07-31T02:10:32;24.94;51.12
31443;SHT31;18065;55.876;9.830;2023-07-31T02:13:01;24.97;51.02
31443;SHT31;18065;55.876;9.830;2023-07-31T02:15:29;24.95;51.07
31443;SHT31;18065;55.876;9.830;2023-07-31T02:18:01;24.98;51.20
31443;SHT31;18065;55.876;9.830;2023-07-31T02:20:32;25.00;51.33
31443;SHT31;18065;55.876;9.830;2023-07-31T02:23:01;24.98;51.39
31443;SHT31;18065;55.876;9.830;2023-07-31T02:25:30;24.97;51.40
31443;SHT31;18065;55.876;9.830;2023-07-31T02:27:59;25.00;51.44
31443;SHT31;18065;55.876;9.830;2023-07-31T02:30:27;25.02;51.36
31443;SHT31;18065;55.876;9.830;2023-07-31T02:32:56;25.01;51.30
31443;SHT31;18065;55.876;9.830;2023-07-31T02:35:27;25.00;51.34
31443;SHT31;18065;55.876;9.830;2023-07-31T02:37:56;25.04;51.31
31443;SHT31;18065;55.876;9.830;2023-07-31T02:40:25;25.05;51.37
31443;SHT31;18065;55.876;9.830;2023-07-31T02:42:54;25.04;51.41
31443;SHT31;18065;55.876;9.830;2023-07-31T02:45:22;25.02;51.33
31443;SHT31;18065;55.876;9.830;2023-07-31T02:47:51;25.05;51.40
31443;SHT31;18065;55.876;9.830;2023-07-31T02:50:20;25.05;51.39
31443;SHT31;18065;55.876;9.830;2023-07-31T02:52:51;25.07;51.39
31443;SHT31;18065;55.876;9.830;2023-07-31T02:55:20;25.05;51.36
31443;SHT31;18065;55.876;9.830;2023-07-31T02:57:49;25.02;51.36
31443;SHT31;18065;55.876;9.830;2023-07-31T03:00:18;25.07;51.41
31443;SHT31;18065;55.876;9.830;2023-07-31T03:02:47;25.07;51.37
31443;SHT31;18065;55.876;9.830;2023-07-31T03:05:16;25.02;51.38
31443;SHT31;18065;55.876;9.830;2023-07-31T03:07:45;25.05;51.31
31443;SHT31;18065;55.876;9.830;2023-07-31T03:10:16;25.04;51.40
31443;SHT31;18065;55.876;9.830;2023-07-31T03:12:46;25.04;51.28
31443;SHT31;18065;55.876;9.830;2023-07-31T03:15:15;25.04;51.08
31443;SHT31;18065;55.876;9.830;2023-07-31T03:17:44;25.02;51.09
31443;SHT31;18065;55.876;9.830;2023-07-31T03:20:13;25.02;50.97
31443;SHT31;18065;55.876;9.830;2023-07-31T03:22:42;25.04;51.18
31443;SHT31;18065;55.876;9.830;2023-07-31T03:25:10;25.02;50.95
31443;SHT31;18065;55.876;9.830;2023-07-31T03:27:42;25.02;51.20
31443;SHT31;18065;55.876;9.830;2023-07-31T03:30:11;25.04;51.20
31443;SHT31;18065;55.876;9.830;2023-07-31T03:32:40;25.01;51.20
31443;SHT31;18065;55.876;9.830;2023-07-31T03:35:08;25.01;51.21
31443;SHT31;18065;55.876;9.830;2023-07-31T03:37:37;25.02;51.19
31443;SHT31;18065;55.876;9.830;2023-07-31T03:40:07;25.02;51.22
31443;SHT31;18065;55.876;9.830;2023-07-31T03:42:36;25.01;51.26
31443;SHT31;18065;55.876;9.830;2023-07-31T03:45:09;25.00;51.33
31443;SHT31;18065;55.876;9.830;2023-07-31T03:47:37;25.00;51.30
31443;SHT31;18065;55.876;9.830;2023-07-31T03:50:07;24.92;51.31
31443;SHT31;18065;55.876;9.830;2023-07-31T03:52:36;24.94;51.36
31443;SHT31;18065;55.876;9.830;2023-07-31T03:55:05;24.92;51.39
31443;SHT31;18065;55.876;9.830;2023-07-31T03:57:34;24.90;51.43
31443;SHT31;18065;55.876;9.830;2023-07-31T04:00:03;24.88;51.44
31443;SHT31;18065;55.876;9.830;2023-07-31T04:02:35;24.87;51.54
31443;SHT31;18065;55.876;9.830;2023-07-31T04:05:03;24.90;51.52
31443;SHT31;18065;55.876;9.830;2023-07-31T04:07:32;24.90;51.51
31443;SHT31;18065;55.876;9.830;2023-07-31T04:10:01;24.92;51.52
31443;SHT31;18065;55.876;9.830;2023-07-31T04:12:29;24.91;51.46
31443;SHT31;18065;55.876;9.830;2023-07-31T04:14:58;24.94;51.46
31443;SHT31;18065;55.876;9.830;2023-07-31T04:17:27;24.91;51.52
31443;SHT31;18065;55.876;9.830;2023-07-31T04:19:58;24.92;51.57
31443;SHT31;18065;55.876;9.830;2023-07-31T04:22:27;24.94;51.50
31443;SHT31;18065;55.876;9.830;2023-07-31T04:24:56;24.98;51.50
31443;SHT31;18065;55.876;9.830;2023-07-31T04:27:25;24.95;51.52
31443;SHT31;18065;55.876;9.830;2023-07-31T04:29:54;24.95;51.56
31443;SHT31;18065;55.876;9.830;2023-07-31T04:32:22;24.97;51.51
31443;SHT31;18065;55.876;9.830;2023-07-31T04:34:54;24.91;51.54
31443;SHT31;18065;55.876;9.830;2023-07-31T04:37:25;24.91;51.42
31443;SHT31;18065;55.876;9.830;2023-07-31T04:39:55;24.90;51.47
31443;SHT31;18065;55.876;9.830;2023-07-31T04:42:23;24.85;51.57
31443;SHT31;18065;55.876;9.830;2023-07-31T04:44:52;24.85;51.60
31443;SHT31;18065;55.876;9.830;2023-07-31T04:47:21;24.90;51.60
31443;SHT31;18065;55.876;9.830;2023-07-31T04:49:49;24.85;51.66
31443;SHT31;18065;55.876;9.830;2023-07-31T04:52:18;24.85;51.64
31443;SHT31;18065;55.876;9.830;2023-07-31T04:54:49;24.87;51.62
31443;SHT31;18065;55.876;9.830;2023-07-31T04:57:18;24.85;51.58
31443;SHT31;18065;55.876;9.830;2023-07-31T04:59:47;24.87;51.64
31443;SHT31;18065;55.876;9.830;2023-07-31T05:02:15;24.83;51.68
31443;SHT31;18065;55.876;9.830;2023-07-31T05:04:44;24.83;51.71
31443;SHT31;18065;55.876;9.830;2023-07-31T05:07:13;24.80;51.72
31443;SHT31;18065;55.876;9.830;2023-07-31T05:09:42;24.81;51.82
31443;SHT31;18065;55.876;9.830;2023-07-31T05:12:14;24.81;51.83
31443;SHT31;18065;55.876;9.830;2023-07-31T05:14:43;24.85;51.79
31443;SHT31;18065;55.876;9.830;2023-07-31T05:17:11;24.81;51.82
31443;SHT31;18065;55.876;9.830;2023-07-31T05:19:40;24.85;51.83
31443;SHT31;18065;55.876;9.830;2023-07-31T05:22:09;24.85;51.79
31443;SHT31;18065;55.876;9.830;2023-07-31T05:24:37;24.90;51.78
31443;SHT31;18065;55.876;9.830;2023-07-31T05:27:06;24.87;51.81
31443;SHT31;18065;55.876;9.830;2023-07-31T05:29:38;24.88;51.77
31443;SHT31;18065;55.876;9.830;2023-07-31T05:32:09;24.87;51.77
31443;SHT31;18065;55.876;9.830;2023-07-31T05:34:38;24.88;51.71
31443;SHT31;18065;55.876;9.830;2023-07-31T05:37:06;24.83;51.76
31443;SHT31;18065;55.876;9.830;2023-07-31T05:39:35;24.81;51.76
31443;SHT31;18065;55.876;9.830;2023-07-31T05:42:05;24.83;51.67
31443;SHT31;18065;55.876;9.830;2023-07-31T05:44:34;24.87;51.55
31443;SHT31;18065;55.876;9.830;2023-07-31T05:47:05;24.88;51.56
31443;SHT31;18065;55.876;9.830;2023-07-31T05:49:34;24.88;51.55
31443;SHT31;18065;55.876;9.830;2023-07-31T05:52:03;24.91;51.49
31443;SHT31;18065;55.876;9.830;2023-07-31T05:54:32;24.92;51.50
31443;SHT31;18065;55.876;9.830;2023-07-31T05:57:01;24.95;51.53
31443;SHT31;18065;55.876;9.830;2023-07-31T05:59:30;24.97;51.48
31443;SHT31;18065;55.876;9.830;2023-07-31T06:01:59;24.95;51.48
31443;SHT31;18065;55.876;9.830;2023-07-31T06:04:30;24.97;51.52
31443;SHT31;18065;55.876;9.830;2023-07-31T06:07:00;24.98;51.53
31443;SHT31;18065;55.876;9.830;2023-07-31T06:09:29;25.01;51.49
31443;SHT31;18065;55.876;9.830;2023-07-31T06:11:57;25.01;51.53
31443;SHT31;18065;55.876;9.830;2023-07-31T06:14:26;25.02;51.51
31443;SHT31;18065;55.876;9.830;2023-07-31T06:16:55;25.02;51.48
31443;SHT31;18065;55.876;9.830;2023-07-31T06:19:24;25.02;51.48
31443;SHT31;18065;55.876;9.830;2023-07-31T06:21:55;25.00;51.57
31443;SHT31;18065;55.876;9.830;2023-07-31T06:24:24;25.00;51.60
31443;SHT31;18065;55.876;9.830;2023-07-31T06:26:52;24.98;51.54
31443;SHT31;18065;55.876;9.830;2023-07-31T06:29:23;25.00;51.57
31443;SHT31;18065;55.876;9.830;2023-07-31T06:31:51;24.97;51.57
31443;SHT31;18065;55.876;9.830;2023-07-31T06:34:20;24.95;51.62
31443;SHT31;18065;55.876;9.830;2023-07-31T06:36:49;24.97;51.63
31443;SHT31;18065;55.876;9.830;2023-07-31T06:39:20;25.00;51.59
31443;SHT31;18065;55.876;9.830;2023-07-31T06:41:49;24.98;51.63
31443;SHT31;18065;55.876;9.830;2023-07-31T06:44:17;25.00;51.65
31443;SHT31;18065;55.876;9.830;2023-07-31T06:46:46;25.00;51.70
31443;SHT31;18065;55.876;9.830;2023-07-31T06:49:15;25.01;51.76
31443;SHT31;18065;55.876;9.830;2023-07-31T06:51:43;25.00;51.79
31443;SHT31;18065;55.876;9.830;2023-07-31T06:54:12;25.04;51.81
31443;SHT31;18065;55.876;9.830;2023-07-31T06:56:43;25.04;51.81
31443;SHT31;18065;55.876;9.830;2023-07-31T06:59:12;25.02;51.84
31443;SHT31;18065;55.876;9.830;2023-07-31T07:01:41;25.08;51.85
31443;SHT31;18065;55.876;9.830;2023-07-31T07:04:09;25.07;51.90
31443;SHT31;18065;55.876;9.830;2023-07-31T07:06:38;25.08;51.82
31443;SHT31;18065;55.876;9.830;2023-07-31T07:09:07;25.08;51.87
31443;SHT31;18065;55.876;9.830;2023-07-31T07:11:36;25.05;51.80
31443;SHT31;18065;55.876;9.830;2023-07-31T07:14:08;25.04;51.82
31443;SHT31;18065;55.876;9.830;2023-07-31T07:16:37;25.05;51.93
31443;SHT31;18065;55.876;9.830;2023-07-31T07:19:06;25.05;51.89
31443;SHT31;18065;55.876;9.830;2023-07-31T07:21:35;25.05;51.93
31443;SHT31;18065;55.876;9.830;2023-07-31T07:24:04;25.05;51.93
31443;SHT31;18065;55.876;9.830;2023-07-31T07:26:33;25.02;51.94
31443;SHT31;18065;55.876;9.830;2023-07-31T07:29:01;25.05;51.89
31443;SHT31;18065;55.876;9.830;2023-07-31T07:31:35;25.04;51.94
31443;SHT31;18065;55.876;9.830;2023-07-31T07:34:05;25.05;51.91
31443;SHT31;18065;55.876;9.830;2023-07-31T07:36:33;25.02;51.87
31443;SHT31;18065;55.876;9.830;2023-07-31T07:39:03;25.02;51.88
31443;SHT31;18065;55.876;9.830;2023-07-31T07:41:31;25.07;51.80
31443;SHT31;18065;55.876;9.830;2023-07-31T07:44:00;25.07;51.84
31443;SHT31;18065;55.876;9.830;2023-07-31T07:46:29;25.02;51.84
31443;SHT31;18065;55.876;9.830;2023-07-31T07:49:00;25.02;51.88
31443;SHT31;18065;55.876;9.830;2023-07-31T07:51:29;25.04;51.95
31443;SHT31;18065;55.876;9.830;2023-07-31T07:53:58;25.07;51.88
31443;SHT31;18065;55.876;9.830;2023-07-31T07:56:27;25.04;51.87
31443;SHT31;18065;55.876;9.830;2023-07-31T07:58:56;25.05;51.94
31443;SHT31;18065;55.876;9.830;2023-07-31T08:01:24;25.05;51.89
31443;SHT31;18065;55.876;9.830;2023-07-31T08:03:53;25.04;51.86
31443;SHT31;18065;55.876;9.830;2023-07-31T08:06:25;25.02;51.93
31443;SHT31;18065;55.876;9.830;2023-07-31T08:08:55;25.04;51.92
31443;SHT31;18065;55.876;9.830;2023-07-31T08:11:24;25.04;51.94
31443;SHT31;18065;55.876;9.830;2023-07-31T08:13:52;25.05;51.97
31443;SHT31;18065;55.876;9.830;2023-07-31T08:16:21;25.07;51.86
31443;SHT31;18065;55.876;9.830;2023-07-31T08:18:50;25.05;51.84
31443;SHT31;18065;55.876;9.830;2023-07-31T08:21:18;25.05;51.76
31443;SHT31;18065;55.876;9.830;2023-07-31T08:23:50;25.07;51.56
31443;SHT31;18065;55.876;9.830;2023-07-31T08:26:19;25.08;51.48
31443;SHT31;18065;55.876;9.830;2023-07-31T08:28:48;25.10;51.41
31443;SHT31;18065;55.876;9.830;2023-07-31T08:31:17;25.11;51.40
31443;SHT31;18065;55.876;9.830;2023-07-31T08:33:46;25.11;51.32
31443;SHT31;18065;55.876;9.830;2023-07-31T08:36:14;25.12;51.28
31443;SHT31;18065;55.876;9.830;2023-07-31T08:38:44;25.14;51.18
31443;SHT31;18065;55.876;9.830;2023-07-31T08:41:16;25.14;51.05
31443;SHT31;18065;55.876;9.830;2023-07-31T08:43:46;25.14;50.81
31443;SHT31;18065;55.876;9.830;2023-07-31T08:46:15;25.15;50.70
31443;SHT31;18065;55.876;9.830;2023-07-31T08:48:44;25.15;50.41
31443;SHT31;18065;55.876;9.830;2023-07-31T08:51:14;25.15;50.19
31443;SHT31;18065;55.876;9.830;2023-07-31T08:53:43;25.15;50.27
31443;SHT31;18065;55.876;9.830;2023-07-31T08:56:12;25.15;50.32
31443;SHT31;18065;55.876;9.830;2023-07-31T08:58:46;25.16;50.14
31443;SHT31;18065;55.876;9.830;2023-07-31T09:01:16;25.15;50.17
31443;SHT31;18065;55.876;9.830;2023-07-31T09:03:46;25.18;50.09
31443;SHT31;18065;55.876;9.830;2023-07-31T09:06:18;25.18;49.98
31443;SHT31;18065;55.876;9.830;2023-07-31T09:08:48;25.21;49.92
31443;SHT31;18065;55.876;9.830;2023-07-31T09:11:18;25.18;50.00
31443;SHT31;18065;55.876;9.830;2023-07-31T09:13:50;25.18;50.10
31443;SHT31;18065;55.876;9.830;2023-07-31T09:16:19;25.19;50.16
31443;SHT31;18065;55.876;9.830;2023-07-31T09:18:56;25.19;50.19
31443;SHT31;18065;55.876;9.830;2023-07-31T09:21:27;25.23;50.18
31443;SHT31;18065;55.876;9.830;2023-07-31T09:23:56;25.21;50.36
31443;SHT31;18065;55.876;9.830;2023-07-31T09:26:32;25.23;50.42
31443;SHT31;18065;55.876;9.830;2023-07-31T09:29:04;25.25;50.43
31443;SHT31;18065;55.876;9.830;2023-07-31T09:31:38;25.25;50.34
31443;SHT31;18065;55.876;9.830;2023-07-31T09:34:08;25.25;50.33
31443;SHT31;18065;55.876;9.830;2023-07-31T09:36:42;25.25;50.41
31443;SHT31;18065;55.876;9.830;2023-07-31T09:39:12;25.25;50.39
31443;SHT31;18065;55.876;9.830;2023-07-31T09:41:43;25.25;50.32
31443;SHT31;18065;55.876;9.830;2023-07-31T09:44:14;25.28;50.25
31443;SHT31;18065;55.876;9.830;2023-07-31T09:46:43;25.31;50.23
31443;SHT31;18065;55.876;9.830;2023-07-31T09:49:13;25.31;50.31
31443;SHT31;18065;55.876;9.830;2023-07-31T09:51:42;25.31;50.17
31443;SHT31;18065;55.876;9.830;2023-07-31T09:54:11;25.32;50.25
31443;SHT31;18065;55.876;9.830;2023-07-31T09:56:42;25.31;50.10
31443;SHT31;18065;55.876;9.830;2023-07-31T09:59:16;25.31;49.95
31443;SHT31;18065;55.876;9.830;2023-07-31T10:01:46;25.29;49.97
31443;SHT31;18065;55.876;9.830;2023-07-31T10:04:16;25.32;49.91
31443;SHT31;18065;55.876;9.830;2023-07-31T10:06:49;25.32;49.62
31443;SHT31;18065;55.876;9.830;2023-07-31T10:09:18;25.33;49.71
31443;SHT31;18065;55.876;9.830;2023-07-31T10:11:55;25.33;49.55
31443;SHT31;18065;55.876;9.830;2023-07-31T10:14:31;25.32;49.73
31443;SHT31;18065;55.876;9.830;2023-07-31T10:16:59;25.31;49.76
31443;SHT31;18065;55.876;9.830;2023-07-31T10:19:30;25.28;49.71
31443;SHT31;18065;55.876;9.830;2023-07-31T10:21:59;25.31;49.50
31443;SHT31;18065;55.876;9.830;2023-07-31T10:24:29;25.35;49.29
31443;SHT31;18065;55.876;9.830;2023-07-31T10:27:00;25.31;49.06
31443;SHT31;18065;55.876;9.830;2023-07-31T10:29:32;25.32;48.99
31443;SHT31;18065;55.876;9.830;2023-07-31T10:32:01;25.29;48.79
31443;SHT31;18065;55.876;9.830;2023-07-31T10:34:33;25.32;48.75
31443;SHT31;18065;55.876;9.830;2023-07-31T10:37:21;25.32;48.60
31443;SHT31;18065;55.876;9.830;2023-07-31T10:40:00;25.35;48.52
31443;SHT31;18065;55.876;9.830;2023-07-31T10:42:30;25.32;48.59
31443;SHT31;18065;55.876;9.830;2023-07-31T10:45:04;25.33;48.40
31443;SHT31;18065;55.876;9.830;2023-07-31T10:47:37;25.35;48.15
31443;SHT31;18065;55.876;9.830;2023-07-31T10:50:15;25.39;48.70
31443;SHT31;18065;55.876;9.830;2023-07-31T10:52:47;25.41;48.89
31443;SHT31;18065;55.876;9.830;2023-07-31T10:55:29;25.43;48.94
31443;SHT31;18065;55.876;9.830;2023-07-31T10:58:06;25.49;49.06
31443;SHT31;18065;55.876;9.830;2023-07-31T11:00:40;25.49;49.12
31443;SHT31;18065;55.876;9.830;2023-07-31T11:03:10;25.52;49.11
31443;SHT31;18065;55.876;9.830;2023-07-31T11:05:47;25.53;49.13
31443;SHT31;18065;55.876;9.830;2023-07-31T11:08:18;25.56;49.06
31443;SHT31;18065;55.876;9.830;2023-07-31T11:10:49;25.56;49.12
31443;SHT31;18065;55.876;9.830;2023-07-31T11:13:20;25.60;49.02
31443;SHT31;18065;55.876;9.830;2023-07-31T11:15:51;25.62;49.02
31443;SHT31;18065;55.876;9.830;2023-07-31T11:18:20;25.60;48.94
31443;SHT31;18065;55.876;9.830;2023-07-31T11:20:49;25.63;48.95
31443;SHT31;18065;55.876;9.830;2023-07-31T11:23:18;25.65;48.96
31443;SHT31;18065;55.876;9.830;2023-07-31T11:25:47;25.67;48.91
31443;SHT31;18065;55.876;9.830;2023-07-31T11:28:18;25.66;49.12
31443;SHT31;18065;55.876;9.830;2023-07-31T11:30:47;25.69;48.96
31443;SHT31;18065;55.876;9.830;2023-07-31T11:33:18;25.67;48.89
31443;SHT31;18065;55.876;9.830;2023-07-31T11:35:48;25.55;47.76
31443;SHT31;18065;55.876;9.830;2023-07-31T11:38:24;25.47;47.71
31443;SHT31;18065;55.876;9.830;2023-07-31T11:40:53;25.52;47.74
31443;SHT31;18065;55.876;9.830;2023-07-31T11:43:22;25.56;47.49
31443;SHT31;18065;55.876;9.830;2023-07-31T11:45:55;25.65;47.33
31443;SHT31;18065;55.876;9.830;2023-07-31T11:48:28;25.67;47.21
31443;SHT31;18065;55.876;9.830;2023-07-31T11:51:00;25.70;46.89
31443;SHT31;18065;55.876;9.830;2023-07-31T11:53:31;25.72;46.82
31443;SHT31;18065;55.876;9.830;2023-07-31T11:56:02;25.66;46.73
31443;SHT31;18065;55.876;9.830;2023-07-31T11:58:32;25.69;47.02
31443;SHT31;18065;55.876;9.830;2023-07-31T12:01:02;25.66;46.89
31443;SHT31;18065;55.876;9.830;2023-07-31T12:03:34;25.67;47.03
31443;SHT31;18065;55.876;9.830;2023-07-31T12:06:03;25.72;46.81
31443;SHT31;18065;55.876;9.830;2023-07-31T12:08:31;25.72;46.61
31443;SHT31;18065;55.876;9.830;2023-07-31T12:11:03;25.67;46.20
31443;SHT31;18065;55.876;9.830;2023-07-31T12:13:33;25.67;46.29
31443;SHT31;18065;55.876;9.830;2023-07-31T12:16:03;25.66;46.05
31443;SHT31;18065;55.876;9.830;2023-07-31T12:18:37;25.65;46.31
31443;SHT31;18065;55.876;9.830;2023-07-31T12:21:07;25.67;46.33
31443;SHT31;18065;55.876;9.830;2023-07-31T12:23:37;25.69;46.15
31443;SHT31;18065;55.876;9.830;2023-07-31T12:26:09;25.67;46.26
31443;SHT31;18065;55.876;9.830;2023-07-31T12:28:40;25.67;45.81
31443;SHT31;18065;55.876;9.830;2023-07-31T12:31:10;25.67;45.55
31443;SHT31;18065;55.876;9.830;2023-07-31T12:33:42;25.66;45.63
31443;SHT31;18065;55.876;9.830;2023-07-31T12:36:12;25.65;45.73
31443;SHT31;18065;55.876;9.830;2023-07-31T12:38:41;25.67;45.76
31443;SHT31;18065;55.876;9.830;2023-07-31T12:41:10;25.65;45.76
31443;SHT31;18065;55.876;9.830;2023-07-31T12:43:41;25.69;45.70
31443;SHT31;18065;55.876;9.830;2023-07-31T12:46:10;25.69;46.01
31443;SHT31;18065;55.876;9.830;2023-07-31T12:48:42;25.67;45.85
31443;SHT31;18065;55.876;9.830;2023-07-31T12:51:11;25.67;45.92
31443;SHT31;18065;55.876;9.830;2023-07-31T12:53:39;25.67;46.06
31443;SHT31;18065;55.876;9.830;2023-07-31T12:56:08;25.66;46.08
31443;SHT31;18065;55.876;9.830;2023-07-31T12:58:37;25.67;46.04
31443;SHT31;18065;55.876;9.830;2023-07-31T13:01:05;25.69;46.22
31443;SHT31;18065;55.876;9.830;2023-07-31T13:03:34;25.70;46.48
31443;SHT31;18065;55.876;9.830;2023-07-31T13:06:05;25.70;45.68
31443;SHT31;18065;55.876;9.830;2023-07-31T13:08:34;25.72;45.52
31443;SHT31;18065;55.876;9.830;2023-07-31T13:11:03;25.70;45.46
31443;SHT31;18065;55.876;9.830;2023-07-31T13:13:31;25.72;45.88
31443;SHT31;18065;55.876;9.830;2023-07-31T13:16:00;25.72;45.79
31443;SHT31;18065;55.876;9.830;2023-07-31T13:18:29;25.72;46.12
31443;SHT31;18065;55.876;9.830;2023-07-31T13:20:57;25.72;46.34
31443;SHT31;18065;55.876;9.830;2023-07-31T13:23:29;25.74;46.55
31443;SHT31;18065;55.876;9.830;2023-07-31T13:25:57;25.74;46.36
31443;SHT31;18065;55.876;9.830;2023-07-31T13:28:26;25.77;45.88
31443;SHT31;18065;55.876;9.830;2023-07-31T13:30:55;25.74;45.64
31443;SHT31;18065;55.876;9.830;2023-07-31T13:33:23;25.74;45.70
31443;SHT31;18065;55.876;9.830;2023-07-31T13:35:52;25.73;45.70
31443;SHT31;18065;55.876;9.830;2023-07-31T13:38:21;25.73;45.73
31443;SHT31;18065;55.876;9.830;2023-07-31T13:40:52;25.73;45.66
31443;SHT31;18065;55.876;9.830;2023-07-31T13:43:22;25.74;46.20
31443;SHT31;18065;55.876;9.830;2023-07-31T13:45:50;25.76;46.42
31443;SHT31;18065;55.876;9.830;2023-07-31T13:48:19;25.77;46.58
31443;SHT31;18065;55.876;9.830;2023-07-31T13:50:48;25.79;46.69
31443;SHT31;18065;55.876;9.830;2023-07-31T13:53:16;25.76;46.71
31443;SHT31;18065;55.876;9.830;2023-07-31T13:55:45;25.80;46.22
31443;SHT31;18065;55.876;9.830;2023-07-31T13:58:17;25.77;46.36
31443;SHT31;18065;55.876;9.830;2023-07-31T14:00:46;25.77;45.96
31443;SHT31;18065;55.876;9.830;2023-07-31T14:03:15;25.79;45.96
31443;SHT31;18065;55.876;9.830;2023-07-31T14:05:43;25.77;46.00
31443;SHT31;18065;55.876;9.830;2023-07-31T14:08:12;25.80;46.17
31443;SHT31;18065;55.876;9.830;2023-07-31T14:10:41;25.81;46.28
31443;SHT31;18065;55.876;9.830;2023-07-31T14:13:09;25.84;46.26
31443;SHT31;18065;55.876;9.830;2023-07-31T14:15:41;25.83;46.03
31443;SHT31;18065;55.876;9.830;2023-07-31T14:18:10;25.81;46.18
31443;SHT31;18065;55.876;9.830;2023-07-31T14:20:39;25.81;46.32
31443;SHT31;18065;55.876;9.830;2023-07-31T14:23:08;25.81;46.06
31443;SHT31;18065;55.876;9.830;2023-07-31T14:25:36;25.80;46.06
31443;SHT31;18065;55.876;9.830;2023-07-31T14:28:05;25.83;46.35
31443;SHT31;18065;55.876;9.830;2023-07-31T14:30:34;25.86;46.41
31443;SHT31;18065;55.876;9.830;2023-07-31T14:33:05;25.84;46.53
31443;SHT31;18065;55.876;9.830;2023-07-31T14:35:34;25.83;46.50
31443;SHT31;18065;55.876;9.830;2023-07-31T14:38:03;25.83;46.26
31443;SHT31;18065;55.876;9.830;2023-07-31T14:40:32;25.83;46.31
31443;SHT31;18065;55.876;9.830;2023-07-31T14:43:02;25.83;46.30
31443;SHT31;18065;55.876;9.830;2023-07-31T14:45:30;25.83;46.26
31443;SHT31;18065;55.876;9.830;2023-07-31T14:47:59;25.83;46.29
31443;SHT31;18065;55.876;9.830;2023-07-31T14:50:31;25.83;46.26
31443;SHT31;18065;55.876;9.830;2023-07-31T14:52:59;25.84;46.26
31443;SHT31;18065;55.876;9.830;2023-07-31T14:55:28;25.86;46.13
31443;SHT31;18065;55.876;9.830;2023-07-31T14:57:57;25.84;46.38
31443;SHT31;18065;55.876;9.830;2023-07-31T15:00:25;25.83;46.18
31443;SHT31;18065;55.876;9.830;2023-07-31T15:02:54;25.83;46.03
31443;SHT31;18065;55.876;9.830;2023-07-31T15:05:23;25.84;45.89
31443;SHT31;18065;55.876;9.830;2023-07-31T15:07:54;25.83;45.94
31443;SHT31;18065;55.876;9.830;2023-07-31T15:10:23;25.81;46.09
31443;SHT31;18065;55.876;9.830;2023-07-31T15:12:51;25.83;45.91
31443;SHT31;18065;55.876;9.830;2023-07-31T15:15:20;25.84;45.98
31443;SHT31;18065;55.876;9.830;2023-07-31T15:17:49;25.83;45.80
31443;SHT31;18065;55.876;9.830;2023-07-31T15:20:18;25.83;45.66
31443;SHT31;18065;55.876;9.830;2023-07-31T15:22:46;25.80;45.69
31443;SHT31;18065;55.876;9.830;2023-07-31T15:25:18;25.83;45.55
31443;SHT31;18065;55.876;9.830;2023-07-31T15:27:46;25.81;45.53
31443;SHT31;18065;55.876;9.830;2023-07-31T15:30:15;25.84;45.37
31443;SHT31;18065;55.876;9.830;2023-07-31T15:32:44;25.83;45.40
31443;SHT31;18065;55.876;9.830;2023-07-31T15:35:15;25.83;45.42
31443;SHT31;18065;55.876;9.830;2023-07-31T15:37:44;25.86;45.44
31443;SHT31;18065;55.876;9.830;2023-07-31T15:40:13;25.81;45.61
31443;SHT31;18065;55.876;9.830;2023-07-31T15:42:47;25.87;45.75
31443;SHT31;18065;55.876;9.830;2023-07-31T15:45:16;25.87;45.80
31443;SHT31;18065;55.876;9.830;2023-07-31T15:47:47;25.87;45.67